createdAt,value
2022-10-09T00:01:33.396Z,100132.34
2022-10-09T00:04:01.459Z,100147.75
2022-10-09T00:06:32.647Z,100119.88
2022-10-09T00:09:04.588Z,100138.38
2022-10-09T00:11:35.232Z,100134.09
2022-10-09T00:14:06.122Z,100142.00
2022-10-09T00:16:37.276Z,100128.28
2022-10-09T00:19:04.742Z,100133.53
2022-10-09T00:21:34.966Z,100130.69
2022-10-09T00:24:05.228Z,100120.00
2022-10-09T00:26:33.834Z,100121.25
2022-10-09T00:29:02.190Z,100122.91
2022-10-09T00:31:32.161Z,100123.81
2022-10-09T00:34:00.382Z,100124.69
2022-10-09T00:36:28.441Z,100133.69
2022-10-09T00:38:56.801Z,100127.63
2022-10-09T00:41:27.863Z,100121.69
2022-10-09T00:44:25.936Z,100124.63
2022-10-09T00:46:53.763Z,100125.66
2022-10-09T00:49:30.543Z,100108.56
2022-10-09T00:52:03.218Z,100118.41
2022-10-09T00:54:34.144Z,100117.16
2022-10-09T00:57:02.112Z,100113.44
2022-10-09T00:59:31.235Z,100109.97
2022-10-09T01:02:00.115Z,100107.47
2022-10-09T01:04:28.359Z,100114.72
2022-10-09T01:07:24.788Z,100110.97
2022-10-09T01:10:06.069Z,100107.84
2022-10-09T01:12:50.809Z,100096.56
2022-10-09T01:15:25.059Z,100109.06
2022-10-09T01:18:05.278Z,100100.28
2022-10-09T01:20:41.832Z,100106.53
2022-10-09T01:23:21.291Z,100101.13
2022-10-09T01:26:14.522Z,100098.19
2022-10-09T01:28:46.004Z,100090.25
2022-10-09T01:31:15.635Z,100090.72
2022-10-09T01:33:43.835Z,100080.28
2022-10-09T01:36:11.909Z,100088.44
2022-10-09T01:38:41.546Z,100089.47
2022-10-09T01:41:09.874Z,100085.28
2022-10-09T01:43:37.553Z,100084.44
2022-10-09T01:46:19.771Z,100086.72
2022-10-09T01:49:11.994Z,100089.88
2022-10-09T01:51:54.154Z,100108.25
2022-10-09T01:54:35.278Z,100100.94
2022-10-09T01:57:05.614Z,100101.56
2022-10-09T01:59:39.759Z,100101.84
2022-10-09T02:02:08.935Z,100096.19
2022-10-09T02:04:41.442Z,100110.25
2022-10-09T02:07:09.690Z,100103.34
2022-10-09T02:09:39.971Z,100111.03
2022-10-09T02:12:10.056Z,100107.50
2022-10-09T02:14:37.801Z,100111.72
2022-10-09T02:17:13.115Z,100115.47
2022-10-09T02:19:59.120Z,100112.75
2022-10-09T02:22:30.338Z,100114.47
2022-10-09T02:25:01.749Z,100123.88
2022-10-09T02:27:29.491Z,100131.41
2022-10-09T02:29:59.035Z,100124.09
2022-10-09T02:32:26.781Z,100118.06
2022-10-09T02:34:54.118Z,100126.41
2022-10-09T02:37:21.409Z,100126.59
2022-10-09T02:39:49.282Z,100137.28
2022-10-09T02:42:18.615Z,100142.09
2022-10-09T02:44:47.558Z,100136.03
2022-10-09T02:47:18.536Z,100143.56
2022-10-09T02:49:45.955Z,100143.75
2022-10-09T02:52:14.785Z,100152.31
2022-10-09T02:54:42.636Z,100145.66
2022-10-09T02:57:11.802Z,100146.94
2022-10-09T02:59:40.780Z,100147.38
2022-10-09T03:02:09.261Z,100152.81
2022-10-09T03:04:37.479Z,100146.56
2022-10-09T03:07:04.848Z,100146.13
2022-10-09T03:09:33.836Z,100156.75
2022-10-09T03:12:02.903Z,100154.25
2022-10-09T03:14:31.987Z,100152.16
2022-10-09T03:16:59.661Z,100161.13
2022-10-09T03:19:27.020Z,100164.06
2022-10-09T03:21:56.967Z,100160.28
2022-10-09T03:24:24.762Z,100166.56
2022-10-09T03:26:52.799Z,100159.03
2022-10-09T03:29:20.571Z,100161.16
2022-10-09T03:31:53.393Z,100167.00
2022-10-09T03:34:25.048Z,100176.63
2022-10-09T03:36:56.993Z,100174.28
2022-10-09T03:39:28.364Z,100176.16
2022-10-09T03:41:57.126Z,100168.69
2022-10-09T03:44:24.580Z,100172.00
2022-10-09T03:46:52.850Z,100181.19
2022-10-09T03:49:21.477Z,100175.75
2022-10-09T03:51:50.282Z,100180.78
2022-10-09T03:54:17.928Z,100183.09
2022-10-09T03:56:45.589Z,100182.88
2022-10-09T03:59:13.011Z,100176.59
2022-10-09T04:01:41.018Z,100174.47
2022-10-09T04:04:10.786Z,100179.09
2022-10-09T04:06:42.233Z,100177.44
2022-10-09T04:09:10.747Z,100179.53
2022-10-09T04:11:40.037Z,100182.41
2022-10-09T04:14:09.254Z,100188.06
2022-10-09T04:16:39.215Z,100183.66
2022-10-09T04:19:07.882Z,100183.28
2022-10-09T04:21:35.823Z,100180.94
2022-10-09T04:24:04.061Z,100176.13
2022-10-09T04:26:31.430Z,100182.38
2022-10-09T04:28:59.519Z,100189.94
2022-10-09T04:31:27.301Z,100190.34
2022-10-09T04:33:55.745Z,100200.41
2022-10-09T04:36:24.128Z,100198.72
2022-10-09T04:38:53.180Z,100198.31
2022-10-09T04:41:21.242Z,100203.75
2022-10-09T04:43:48.836Z,100212.50
2022-10-09T04:46:17.470Z,100206.66
2022-10-09T04:48:46.883Z,100208.53
2022-10-09T04:51:15.544Z,100204.78
2022-10-09T04:53:45.435Z,100200.59
2022-10-09T04:56:18.450Z,100199.94
2022-10-09T04:58:47.452Z,100202.00
2022-10-09T05:01:24.418Z,100208.88
2022-10-09T05:03:53.100Z,100208.25
2022-10-09T05:06:21.949Z,100216.59
2022-10-09T05:08:50.206Z,100220.78
2022-10-09T05:11:22.075Z,100220.34
2022-10-09T05:13:52.323Z,100212.84
2022-10-09T05:16:32.108Z,100232.09
2022-10-09T05:19:00.920Z,100234.41
2022-10-09T05:21:29.414Z,100226.06
2022-10-09T05:23:57.528Z,100222.09
2022-10-09T05:26:26.593Z,100232.97
2022-10-09T05:28:54.665Z,100240.06
2022-10-09T05:31:27.941Z,100241.56
2022-10-09T05:33:58.709Z,100247.16
2022-10-09T05:36:26.135Z,100250.94
2022-10-09T05:38:53.455Z,100245.50
2022-10-09T05:41:21.064Z,100254.69
2022-10-09T05:43:49.996Z,100254.47
2022-10-09T05:46:23.518Z,100251.34
2022-10-09T05:48:58.983Z,100260.94
2022-10-09T05:51:32.372Z,100259.91
2022-10-09T05:54:02.080Z,100265.72
2022-10-09T05:56:31.389Z,100266.94
2022-10-09T05:59:07.728Z,100281.38
2022-10-09T06:01:41.507Z,100275.50
2022-10-09T06:04:14.202Z,100292.41
2022-10-09T06:06:42.623Z,100292.59
2022-10-09T06:09:11.261Z,100300.69
2022-10-09T06:11:40.278Z,100298.72
2022-10-09T06:14:09.963Z,100301.34
2022-10-09T06:16:40.362Z,100299.47
2022-10-09T06:19:10.421Z,100305.09
2022-10-09T06:21:38.702Z,100310.78
2022-10-09T06:24:07.186Z,100303.94
2022-10-09T06:26:35.155Z,100309.19
2022-10-09T06:29:03.402Z,100310.44
2022-10-09T06:31:33.327Z,100308.13
2022-10-09T06:34:03.316Z,100310.44
2022-10-09T06:36:33.608Z,100325.91
2022-10-09T06:39:05.413Z,100323.56
2022-10-09T06:41:34.629Z,100333.59
2022-10-09T06:44:16.687Z,100328.97
2022-10-09T06:46:46.467Z,100332.25
2022-10-09T06:49:13.827Z,100331.94
2022-10-09T06:51:41.438Z,100337.38
2022-10-09T06:54:17.642Z,100343.47
2022-10-09T06:56:47.313Z,100331.13
2022-10-09T06:59:15.892Z,100344.41
2022-10-09T07:01:50.110Z,100344.75
2022-10-09T07:04:25.370Z,100353.31
2022-10-09T07:06:55.831Z,100353.97
2022-10-09T07:09:42.738Z,100351.13
2022-10-09T07:12:10.687Z,100355.75
2022-10-09T07:14:38.131Z,100352.53
2022-10-09T07:17:06.054Z,100357.06
2022-10-09T07:19:33.475Z,100356.78
2022-10-09T07:22:00.854Z,100359.50
2022-10-09T07:24:28.759Z,100366.63
2022-10-09T07:26:57.625Z,100368.88
2022-10-09T07:29:25.427Z,100375.16
2022-10-09T07:31:54.496Z,100381.91
2022-10-09T07:34:23.600Z,100387.59
2022-10-09T07:36:52.603Z,100376.78
2022-10-09T07:39:26.026Z,100369.22
2022-10-09T07:41:59.213Z,100370.19
2022-10-09T07:44:31.823Z,100368.88
2022-10-09T07:47:02.327Z,100379.16
2022-10-09T07:49:33.381Z,100383.66
2022-10-09T07:52:02.316Z,100369.03
2022-10-09T07:54:29.708Z,100381.44
2022-10-09T07:56:57.500Z,100385.16
2022-10-09T07:59:24.902Z,100355.38
2022-10-09T08:01:52.262Z,100372.97
2022-10-09T08:04:19.907Z,100372.50
2022-10-09T08:06:47.313Z,100366.63
2022-10-09T08:09:20.143Z,100371.91
2022-10-09T08:11:48.267Z,100368.28
2022-10-09T08:14:20.541Z,100370.91
2022-10-09T08:16:49.670Z,100378.72
2022-10-09T08:19:41.141Z,100384.31
2022-10-09T08:22:08.833Z,100380.66
2022-10-09T08:24:36.854Z,100380.25
2022-10-09T08:27:04.348Z,100384.88
2022-10-09T08:29:34.591Z,100382.09
2022-10-09T08:32:04.210Z,100387.69
2022-10-09T08:34:31.558Z,100389.81
2022-10-09T08:36:58.985Z,100388.41
2022-10-09T08:39:31.127Z,100383.50
2022-10-09T08:42:03.625Z,100390.28
2022-10-09T08:44:38.350Z,100380.63
2022-10-09T08:47:29.985Z,100384.88
2022-10-09T08:50:10.132Z,100387.88
2022-10-09T08:53:00.346Z,100389.53
2022-10-09T08:55:56.561Z,100382.31
2022-10-09T08:58:30.530Z,100385.69
2022-10-09T09:01:25.245Z,100390.06
2022-10-09T09:04:28.152Z,100409.88
2022-10-09T09:07:23.470Z,100409.63
2022-10-09T09:09:50.748Z,100412.88
2022-10-09T09:12:29.538Z,100410.97
2022-10-09T09:15:22.420Z,100416.78
2022-10-09T09:18:08.693Z,100421.75
2022-10-09T09:21:05.694Z,100408.50
2022-10-09T09:23:41.185Z,100420.09
2022-10-09T09:26:16.370Z,100416.94
2022-10-09T09:28:44.869Z,100415.91
2022-10-09T09:31:27.485Z,100411.53
2022-10-09T09:34:09.702Z,100417.84
2022-10-09T09:36:47.703Z,100418.91
2022-10-09T09:40:08.150Z,100419.09
2022-10-09T09:42:16.232Z,100422.22
2022-10-09T09:45:08.680Z,100423.31
2022-10-09T09:47:47.597Z,100433.63
2022-10-09T09:50:47.043Z,100426.91
2022-10-09T09:53:46.674Z,100439.03
2022-10-09T09:56:19.690Z,100424.53
2022-10-09T09:58:50.270Z,100426.59
2022-10-09T10:01:31.117Z,100429.69
2022-10-09T10:04:19.251Z,100425.31
2022-10-09T10:06:55.653Z,100423.63
2022-10-09T10:09:37.060Z,100428.41
2022-10-09T10:12:08.147Z,100433.19
2022-10-09T10:14:38.655Z,100434.94
2022-10-09T10:17:26.923Z,100437.06
2022-10-09T10:19:56.843Z,100437.53
2022-10-09T10:22:29.852Z,100431.31
2022-10-09T10:25:04.455Z,100437.72
2022-10-09T10:27:44.096Z,100441.88
2022-10-09T10:30:18.394Z,100435.41
2022-10-09T10:33:14.774Z,100439.66
2022-10-09T10:35:44.662Z,100445.00
2022-10-09T10:38:30.003Z,100427.09
2022-10-09T10:41:35.459Z,100434.47
2022-10-09T10:45:11.201Z,100436.19
2022-10-09T10:47:52.261Z,100423.38
2022-10-09T10:50:28.510Z,100423.56
2022-10-09T10:53:50.736Z,100427.59
2022-10-09T10:56:53.822Z,100423.22
2022-10-09T10:59:48.928Z,100420.19
2022-10-09T11:02:58.888Z,100422.09
2022-10-09T11:06:09.607Z,100423.59
2022-10-09T11:08:54.216Z,100426.59
2022-10-09T11:11:40.994Z,100428.53
2022-10-09T11:14:38.559Z,100415.19
2022-10-09T11:17:39.216Z,100414.94
2022-10-09T11:20:33.093Z,100412.69
2022-10-09T11:23:30.152Z,100407.38
2022-10-09T11:29:07.234Z,100412.44
2022-10-09T11:31:43.573Z,100402.50
2022-10-09T11:34:39.719Z,100402.53
2022-10-09T11:37:26.721Z,100411.38
2022-10-09T11:39:58.425Z,100410.56
2022-10-09T11:42:27.913Z,100401.72
2022-10-09T11:45:34.752Z,100402.75
2022-10-09T11:48:41.180Z,100403.38
2022-10-09T11:51:58.735Z,100396.03
2022-10-09T11:54:33.798Z,100386.41
2022-10-09T11:57:09.603Z,100397.13
2022-10-09T11:59:45.433Z,100402.34
2022-10-09T12:02:27.648Z,100392.75
2022-10-09T12:04:57.861Z,100404.00
2022-10-09T12:07:34.263Z,100403.25
2022-10-09T12:10:22.185Z,100403.63
2022-10-09T12:13:06.483Z,100402.72
2022-10-09T12:15:46.532Z,100401.16
2022-10-09T12:18:35.091Z,100406.00
2022-10-09T12:21:25.894Z,100403.25
2022-10-09T12:23:59.797Z,100400.09
2022-10-09T12:26:30.480Z,100398.97
2022-10-09T12:29:05.285Z,100399.72
2022-10-09T12:31:39.021Z,100403.91
2022-10-09T12:34:31.718Z,100398.97
2022-10-09T12:37:43.667Z,100402.22
2022-10-09T12:40:22.047Z,100393.72
2022-10-09T12:42:53.074Z,100400.06
2022-10-09T12:45:30.873Z,100399.66
2022-10-09T12:48:13.634Z,100408.00
2022-10-09T12:50:46.713Z,100400.75
2022-10-09T12:53:30.555Z,100405.97
2022-10-09T12:56:12.852Z,100404.38
2022-10-09T12:58:45.089Z,100408.72
2022-10-09T13:01:24.944Z,100400.19
2022-10-09T13:04:03.667Z,100409.34
2022-10-09T13:07:19.759Z,100396.63
2022-10-09T13:09:48.554Z,100401.44
2022-10-09T13:12:52.664Z,100389.75
2022-10-09T13:15:38.101Z,100385.16
2022-10-09T13:18:24.473Z,100386.50
2022-10-09T13:21:20.390Z,100387.84
2022-10-09T13:23:48.607Z,100377.81
2022-10-09T13:26:25.018Z,100386.56
2022-10-09T13:29:03.978Z,100391.53
2022-10-09T13:32:10.089Z,100382.47
2022-10-09T13:34:47.728Z,100384.44
2022-10-09T13:37:20.485Z,100383.63
2022-10-09T13:39:58.103Z,100373.47
2022-10-09T13:42:33.201Z,100366.44
2022-10-09T13:45:02.661Z,100365.41
2022-10-09T13:47:34.114Z,100364.47
2022-10-09T13:50:03.966Z,100366.69
2022-10-09T13:52:45.020Z,100375.25
2022-10-09T13:55:18.718Z,100372.13
2022-10-09T13:57:59.840Z,100361.25
2022-10-09T14:00:30.553Z,100365.91
2022-10-09T14:03:04.590Z,100367.34
2022-10-09T14:05:32.269Z,100355.16
2022-10-09T14:08:01.611Z,100360.22
2022-10-09T14:10:32.010Z,100360.09
2022-10-09T14:13:05.338Z,100354.09
2022-10-09T14:15:34.322Z,100360.81
2022-10-09T14:18:06.696Z,100365.78
2022-10-09T14:20:38.528Z,100362.25
2022-10-09T14:23:11.819Z,100357.53
2022-10-09T14:25:45.660Z,100359.31
2022-10-09T14:28:21.301Z,100344.44
2022-10-09T14:30:50.563Z,100358.13
2022-10-09T14:33:18.996Z,100331.94
2022-10-09T14:35:56.997Z,100359.59
2022-10-09T14:38:54.874Z,100357.97
2022-10-09T14:41:26.123Z,100357.00
2022-10-09T14:44:02.500Z,100361.03
2022-10-09T14:46:34.042Z,100366.09
2022-10-09T14:49:07.700Z,100364.75
2022-10-09T14:51:42.220Z,100351.47
2022-10-09T14:54:12.897Z,100355.13
2022-10-09T14:56:44.019Z,100355.13
2022-10-09T14:59:14.995Z,100355.13
2022-10-09T15:01:45.252Z,100343.41
2022-10-09T15:04:21.871Z,100349.41
2022-10-09T15:06:54.822Z,100346.66
2022-10-09T15:09:30.802Z,100350.41
2022-10-09T15:12:24.595Z,100346.19
2022-10-09T15:14:54.086Z,100343.41
2022-10-09T15:17:26.513Z,100353.28
2022-10-09T15:20:31.327Z,100355.00
2022-10-09T15:23:04.188Z,100357.59
2022-10-09T15:25:36.650Z,100359.97
2022-10-09T15:28:10.218Z,100359.03
2022-10-09T15:30:45.312Z,100368.72
2022-10-09T15:33:13.917Z,100361.00
2022-10-09T15:35:45.008Z,100364.03
2022-10-09T15:38:24.477Z,100359.88
2022-10-09T15:41:07.922Z,100361.09
2022-10-09T15:43:43.665Z,100364.53
2022-10-09T15:46:15.204Z,100355.59
2022-10-09T15:48:46.300Z,100365.47
2022-10-09T15:51:21.170Z,100366.41
2022-10-09T15:54:01.271Z,100366.88
2022-10-09T15:56:48.127Z,100368.75
2022-10-09T15:59:20.429Z,100362.06
2022-10-09T16:01:51.591Z,100371.94
2022-10-09T16:04:21.681Z,100376.59
2022-10-09T16:06:54.116Z,100372.91
2022-10-09T16:09:34.101Z,100381.47
2022-10-09T16:12:08.308Z,100377.25
2022-10-09T16:14:44.677Z,100375.25
2022-10-09T16:17:40.486Z,100379.97
2022-10-09T16:20:16.410Z,100380.88
2022-10-09T16:22:47.910Z,100381.41
2022-10-09T16:25:28.790Z,100384.53
2022-10-09T16:28:07.764Z,100384.28
2022-10-09T16:30:48.872Z,100387.63
2022-10-09T16:33:24.449Z,100388.84
2022-10-09T16:36:46.362Z,100390.13
2022-10-09T16:39:19.028Z,100394.75
2022-10-09T16:41:49.587Z,100395.41
2022-10-09T16:44:19.580Z,100389.00
2022-10-09T16:46:49.709Z,100381.34
2022-10-09T16:49:24.161Z,100385.66
2022-10-09T16:51:54.149Z,100392.91
2022-10-09T16:54:24.467Z,100396.94
2022-10-09T16:56:54.283Z,100392.47
2022-10-09T16:59:25.937Z,100402.22
2022-10-09T17:02:09.825Z,100405.16
2022-10-09T17:04:38.931Z,100402.16
2022-10-09T17:07:12.372Z,100396.56
2022-10-09T17:09:45.750Z,100402.31
2022-10-09T17:12:39.318Z,100390.94
2022-10-09T17:15:19.233Z,100395.53
2022-10-09T17:17:54.133Z,100390.84
2022-10-09T17:20:29.892Z,100395.94
2022-10-09T17:23:05.197Z,100397.75
2022-10-09T17:25:43.547Z,100395.25
2022-10-09T17:28:12.309Z,100390.81
2022-10-09T17:30:43.275Z,100392.44
2022-10-09T17:33:16.322Z,100395.91
2022-10-09T17:35:49.205Z,100397.16
2022-10-09T17:38:21.011Z,100395.25
2022-10-09T17:40:52.103Z,100404.41
2022-10-09T17:43:34.329Z,100418.03
2022-10-09T17:46:08.179Z,100405.22
2022-10-09T17:48:45.828Z,100408.13
2022-10-09T17:51:20.605Z,100414.63
2022-10-09T17:54:01.498Z,100418.00
2022-10-09T17:56:31.687Z,100408.53
2022-10-09T17:59:03.855Z,100415.22
2022-10-09T18:01:32.144Z,100417.75
2022-10-09T18:04:05.674Z,100418.22
2022-10-09T18:06:36.986Z,100421.22
2022-10-09T18:09:08.156Z,100428.59
2022-10-09T18:12:01.736Z,100431.75
2022-10-09T18:14:32.423Z,100430.31
2022-10-09T18:17:34.782Z,100435.13
2022-10-09T18:20:06.445Z,100434.28
2022-10-09T18:22:48.900Z,100436.97
2022-10-09T18:25:19.691Z,100438.00
2022-10-09T18:27:51.739Z,100438.25
2022-10-09T18:30:27.900Z,100439.75
2022-10-09T18:33:01.677Z,100436.38
2022-10-09T18:35:39.434Z,100431.16
2022-10-09T18:38:10.729Z,100438.75
2022-10-09T18:40:45.831Z,100434.56
2022-10-09T18:43:13.934Z,100449.22
2022-10-09T18:45:49.641Z,100452.13
2022-10-09T18:48:43.585Z,100451.47
2022-10-09T18:51:17.759Z,100455.91
2022-10-09T18:53:54.761Z,100446.69
2022-10-09T18:56:24.660Z,100444.03
2022-10-09T18:58:57.668Z,100456.34
2022-10-09T19:01:32.752Z,100457.19
2022-10-09T19:04:05.068Z,100456.16
2022-10-09T19:06:33.840Z,100451.31
2022-10-09T19:09:22.840Z,100460.97
2022-10-09T19:11:50.787Z,100460.53
2022-10-09T19:14:22.989Z,100459.28
2022-10-09T19:16:56.573Z,100466.59
2022-10-09T19:19:31.131Z,100458.44
2022-10-09T19:22:00.566Z,100458.44
2022-10-09T19:24:34.170Z,100466.34
2022-10-09T19:27:03.361Z,100460.13
2022-10-09T19:29:46.019Z,100461.41
2022-10-09T19:32:19.195Z,100462.66
2022-10-09T19:34:52.836Z,100458.44
2022-10-09T19:37:28.897Z,100460.56
2022-10-09T19:40:01.261Z,100455.34
2022-10-09T19:42:33.056Z,100457.56
2022-10-09T19:45:03.868Z,100463.69
2022-10-09T19:47:33.991Z,100466.00
2022-10-09T19:50:06.836Z,100468.53
2022-10-09T19:52:38.681Z,100464.97
2022-10-09T19:55:08.447Z,100463.94
2022-10-09T19:57:40.588Z,100466.28
2022-10-09T20:00:35.079Z,100467.91
2022-10-09T20:03:03.864Z,100470.22
2022-10-09T20:05:35.655Z,100470.63
2022-10-09T20:08:15.439Z,100456.88
2022-10-09T20:11:36.265Z,100465.19
2022-10-09T20:14:07.452Z,100466.66
2022-10-09T20:16:39.408Z,100460.63
2022-10-09T20:19:08.994Z,100462.06
2022-10-09T20:21:38.192Z,100445.81
2022-10-09T20:24:10.199Z,100466.50
2022-10-09T20:26:45.865Z,100466.06
2022-10-09T20:29:21.650Z,100466.50
2022-10-09T20:31:50.858Z,100468.59
2022-10-09T20:34:20.745Z,100464.41
2022-10-09T20:36:49.365Z,100469.41
2022-10-09T20:39:21.467Z,100474.03
2022-10-09T20:41:52.719Z,100465.88
2022-10-09T20:44:25.947Z,100459.38
2022-10-09T20:46:57.045Z,100464.41
2022-10-09T20:49:25.082Z,100458.75
2022-10-09T20:51:57.024Z,100452.69
2022-10-09T20:54:25.720Z,100460.19
2022-10-09T20:56:58.450Z,100459.81
2022-10-09T20:59:30.204Z,100467.13
2022-10-09T21:02:07.547Z,100462.72
2022-10-09T21:04:41.624Z,100451.84
2022-10-09T21:07:11.521Z,100463.16
2022-10-09T21:09:40.322Z,100462.56
2022-10-09T21:12:09.680Z,100450.81
2022-10-09T21:14:40.057Z,100449.34
2022-10-09T21:17:12.290Z,100448.94
2022-10-09T21:19:41.309Z,100454.22
2022-10-09T21:22:12.406Z,100438.16
2022-10-09T21:24:42.453Z,100447.75
2022-10-09T21:27:13.912Z,100444.81
2022-10-09T21:29:43.570Z,100450.50
2022-10-09T21:32:15.717Z,100455.31
2022-10-09T21:34:45.499Z,100466.59
2022-10-09T21:37:21.427Z,100459.50
2022-10-09T21:39:54.268Z,100465.81
2022-10-09T21:42:25.259Z,100464.56
2022-10-09T21:44:58.495Z,100480.00
2022-10-09T21:47:27.541Z,100472.06
2022-10-09T21:49:59.635Z,100477.09
2022-10-09T21:52:28.872Z,100479.81
2022-10-09T21:55:01.045Z,100477.09
2022-10-09T21:57:30.257Z,100470.16
2022-10-09T21:59:58.355Z,100473.69
2022-10-09T22:02:31.691Z,100460.75
2022-10-09T22:05:07.382Z,100471.19
2022-10-09T22:07:36.747Z,100449.03
2022-10-09T22:10:08.378Z,100462.63
2022-10-09T22:12:38.598Z,100456.16
2022-10-09T22:15:12.401Z,100464.06
2022-10-09T22:17:43.069Z,100467.03
2022-10-09T22:20:15.612Z,100471.41
2022-10-09T22:22:46.332Z,100472.66
2022-10-09T22:25:23.515Z,100461.16
2022-10-09T22:27:53.750Z,100453.22
2022-10-09T22:30:25.827Z,100446.94
2022-10-09T22:32:56.391Z,100454.03
2022-10-09T22:35:26.363Z,100461.13
2022-10-09T22:37:58.569Z,100465.09
2022-10-09T22:40:27.499Z,100454.38
2022-10-09T22:42:59.651Z,100455.84
2022-10-09T22:45:35.595Z,100468.81
2022-10-09T22:48:05.632Z,100457.50
2022-10-09T22:50:37.678Z,100467.53
2022-10-09T22:53:08.306Z,100461.44
2022-10-09T22:55:41.807Z,100457.63
2022-10-09T22:58:13.502Z,100464.75
2022-10-09T23:00:42.507Z,100458.56
2022-10-09T23:03:12.449Z,100453.94
2022-10-09T23:05:44.775Z,100449.28
2022-10-09T23:08:17.281Z,100457.66
2022-10-09T23:10:50.692Z,100457.25
2022-10-09T23:13:21.990Z,100460.19
2022-10-09T23:15:51.292Z,100460.38
2022-10-09T23:18:19.296Z,100458.88
2022-10-09T23:20:52.489Z,100463.25
2022-10-09T23:23:29.829Z,100459.56
2022-10-09T23:26:02.464Z,100461.09
2022-10-09T23:28:30.864Z,100457.72
2022-10-09T23:31:09.460Z,100462.25
2022-10-09T23:33:45.605Z,100460.75
2022-10-09T23:36:20.797Z,100467.28
2022-10-09T23:38:55.594Z,100462.81
2022-10-09T23:41:26.794Z,100469.00
2022-10-09T23:43:58.583Z,100460.81
2022-10-09T23:46:32.360Z,100461.13
2022-10-09T23:49:02.683Z,100463.06
2022-10-09T23:51:32.536Z,100468.94
2022-10-09T23:54:01.598Z,100470.06
2022-10-09T23:56:38.318Z,100464.22
2022-10-09T23:59:12.999Z,100465.09
